sensor_id;sensor_type;location;lat;lon;timestamp;temperature;humidity
75457;SHT31;64036;48.266;14.192;2023-05-15T00:01:00;11.57;81.70
75457;SHT31;64036;48.266;14.192;2023-05-15T00:03:28;11.56;81.70
75457;SHT31;64036;48.266;14.192;2023-05-15T00:05:54;11.56;81.73
75457;SHT31;64036;48.266;14.192;2023-05-15T00:08:22;11.56;81.78
75457;SHT31;64036;48.266;14.192;2023-05-15T00:10:47;11.56;81.71
75457;SHT31;64036;48.266;14.192;2023-05-15T00:13:18;11.57;81.70
75457;SHT31;64036;48.266;14.192;2023-05-15T00:15:48;11.57;81.70
75457;SHT31;64036;48.266;14.192;2023-05-15T00:18:13;11.57;81.70
75457;SHT31;64036;48.266;14.192;2023-05-15T00:20:39;11.59;81.70
75457;SHT31;64036;48.266;14.192;2023-05-15T00:23:08;11.58;81.70
75457;SHT31;64036;48.266;14.192;2023-05-15T00:25:37;11.58;81.70
75457;SHT31;64036;48.266;14.192;2023-05-15T00:28:03;11.58;81.70
75457;SHT31;64036;48.266;14.192;2023-05-15T00:30:29;11.56;81.72
75457;SHT31;64036;48.266;14.192;2023-05-15T00:32:57;11.56;81.79
75457;SHT31;64036;48.266;14.192;2023-05-15T00:35:28;11.55;81.83
75457;SHT31;64036;48.266;14.192;2023-05-15T00:37:56;11.53;81.90
75457;SHT31;64036;48.266;14.192;2023-05-15T00:40:22;11.52;81.96
75457;SHT31;64036;48.266;14.192;2023-05-15T00:42:49;11.50;82.00
75457;SHT31;64036;48.266;14.192;2023-05-15T00:45:16;11.50;82.01
75457;SHT31;64036;48.266;14.192;2023-05-15T00:47:44;11.49;82.08
75457;SHT31;64036;48.266;14.192;2023-05-15T00:50:13;11.47;82.06
75457;SHT31;64036;48.266;14.192;2023-05-15T00:52:39;11.47;82.10
75457;SHT31;64036;48.266;14.192;2023-05-15T00:55:05;11.46;82.11
75457;SHT31;64036;48.266;14.192;2023-05-15T00:57:31;11.47;82.18
75457;SHT31;64036;48.266;14.192;2023-05-15T01:00:03;11.47;82.16
75457;SHT31;64036;48.266;14.192;2023-05-15T01:02:38;11.47;82.14
75457;SHT31;64036;48.266;14.192;2023-05-15T01:05:03;11.46;82.18
75457;SHT31;64036;48.266;14.192;2023-05-15T01:07:32;11.47;82.20
75457;SHT31;64036;48.266;14.192;2023-05-15T01:10:06;11.48;82.20
75457;SHT31;64036;48.266;14.192;2023-05-15T01:12:33;11.48;82.19
75457;SHT31;64036;48.266;14.192;2023-05-15T01:15:01;11.48;82.19
75457;SHT31;64036;48.266;14.192;2023-05-15T01:17:27;11.48;82.20
75457;SHT31;64036;48.266;14.192;2023-05-15T01:19:58;11.49;82.20
75457;SHT31;64036;48.266;14.192;2023-05-15T01:22:39;11.50;82.20
75457;SHT31;64036;48.266;14.192;2023-05-15T01:25:17;11.49;82.20
75457;SHT31;64036;48.266;14.192;2023-05-15T01:28:05;11.49;82.20
75457;SHT31;64036;48.266;14.192;2023-05-15T01:30:37;11.48;82.20
75457;SHT31;64036;48.266;14.192;2023-05-15T01:36:09;11.49;82.22
75457;SHT31;64036;48.266;14.192;2023-05-15T01:38:52;11.49;82.25
75457;SHT31;64036;48.266;14.192;2023-05-15T01:41:23;11.48;82.22
75457;SHT31;64036;48.266;14.192;2023-05-15T01:44:17;11.50;82.22
75457;SHT31;64036;48.266;14.192;2023-05-15T01:47:03;11.50;82.19
75457;SHT31;64036;48.266;14.192;2023-05-15T01:49:34;11.49;82.18
75457;SHT31;64036;48.266;14.192;2023-05-15T01:52:12;11.46;82.20
75457;SHT31;64036;48.266;14.192;2023-05-15T01:54:49;11.46;82.20
75457;SHT31;64036;48.266;14.192;2023-05-15T01:57:21;11.48;82.20
75457;SHT31;64036;48.266;14.192;2023-05-15T01:59:48;11.48;82.20
75457;SHT31;64036;48.266;14.192;2023-05-15T02:02:15;11.47;82.20
75457;SHT31;64036;48.266;14.192;2023-05-15T02:04:43;11.46;82.21
75457;SHT31;64036;48.266;14.192;2023-05-15T02:07:10;11.44;82.21
75457;SHT31;64036;48.266;14.192;2023-05-15T02:09:37;11.44;82.24
75457;SHT31;64036;48.266;14.192;2023-05-15T02:12:07;11.43;82.30
75457;SHT31;64036;48.266;14.192;2023-05-15T02:14:39;11.41;82.31
75457;SHT31;64036;48.266;14.192;2023-05-15T02:17:09;11.41;82.38
75457;SHT31;64036;48.266;14.192;2023-05-15T02:19:35;11.41;82.39
75457;SHT31;64036;48.266;14.192;2023-05-15T02:22:01;11.40;82.40
75457;SHT31;64036;48.266;14.192;2023-05-15T02:24:26;11.39;82.41
75457;SHT31;64036;48.266;14.192;2023-05-15T02:30:02;11.40;82.50
75457;SHT31;64036;48.266;14.192;2023-05-15T02:36:08;11.38;82.50
75457;SHT31;64036;48.266;14.192;2023-05-15T02:38:50;11.38;82.50
75457;SHT31;64036;48.266;14.192;2023-05-15T02:41:21;11.38;82.50
75457;SHT31;64036;48.266;14.192;2023-05-15T02:43:53;11.37;82.50
75457;SHT31;64036;48.266;14.192;2023-05-15T02:46:24;11.37;82.51
75457;SHT31;64036;48.266;14.192;2023-05-15T02:49:02;11.37;82.51
75457;SHT31;64036;48.266;14.192;2023-05-15T02:51:36;11.36;82.51
75457;SHT31;64036;48.266;14.192;2023-05-15T02:54:01;11.34;82.55
75457;SHT31;64036;48.266;14.192;2023-05-15T02:56:28;11.33;82.62
75457;SHT31;64036;48.266;14.192;2023-05-15T02:58:57;11.33;82.64
75457;SHT31;64036;48.266;14.192;2023-05-15T03:01:36;11.31;82.68
75457;SHT31;64036;48.266;14.192;2023-05-15T03:04:07;11.32;82.73
75457;SHT31;64036;48.266;14.192;2023-05-15T03:06:36;11.35;82.72
75457;SHT31;64036;48.266;14.192;2023-05-15T03:09:10;11.34;82.67
75457;SHT31;64036;48.266;14.192;2023-05-15T03:11:44;11.34;82.65
75457;SHT31;64036;48.266;14.192;2023-05-15T03:14:09;11.33;82.68
75457;SHT31;64036;48.266;14.192;2023-05-15T03:16:35;11.32;82.68
75457;SHT31;64036;48.266;14.192;2023-05-15T03:19:02;11.32;82.70
75457;SHT31;64036;48.266;14.192;2023-05-15T03:21:29;11.33;82.70
75457;SHT31;64036;48.266;14.192;2023-05-15T03:23:59;11.33;82.67
75457;SHT31;64036;48.266;14.192;2023-05-15T03:26:25;11.32;82.62
75457;SHT31;64036;48.266;14.192;2023-05-15T03:28:54;11.34;82.68
75457;SHT31;64036;48.266;14.192;2023-05-15T03:31:23;11.33;82.60
75457;SHT31;64036;48.266;14.192;2023-05-15T03:33:49;11.32;82.60
75457;SHT31;64036;48.266;14.192;2023-05-15T03:36:15;11.32;82.60
75457;SHT31;64036;48.266;14.192;2023-05-15T03:38:47;11.33;82.60
75457;SHT31;64036;48.266;14.192;2023-05-15T03:41:19;11.32;82.66
75457;SHT31;64036;48.266;14.192;2023-05-15T03:43:50;11.33;82.61
75457;SHT31;64036;48.266;14.192;2023-05-15T03:46:15;11.33;82.61
75457;SHT31;64036;48.266;14.192;2023-05-15T03:48:41;11.34;82.66
75457;SHT31;64036;48.266;14.192;2023-05-15T03:51:07;11.34;82.64
75457;SHT31;64036;48.266;14.192;2023-05-15T03:53:32;11.33;82.65
75457;SHT31;64036;48.266;14.192;2023-05-15T03:55:58;11.32;82.68
75457;SHT31;64036;48.266;14.192;2023-05-15T03:58:24;11.34;82.68
75457;SHT31;64036;48.266;14.192;2023-05-15T04:00:50;11.34;82.61
75457;SHT31;64036;48.266;14.192;2023-05-15T04:03:15;11.36;82.60
75457;SHT31;64036;48.266;14.192;2023-05-15T04:05:45;11.35;82.63
75457;SHT31;64036;48.266;14.192;2023-05-15T04:08:14;11.35;82.67
75457;SHT31;64036;48.266;14.192;2023-05-15T04:10:40;11.36;82.64
75457;SHT31;64036;48.266;14.192;2023-05-15T04:13:08;11.36;82.67
75457;SHT31;64036;48.266;14.192;2023-05-15T04:15:37;11.37;82.68
75457;SHT31;64036;48.266;14.192;2023-05-15T04:18:04;11.38;82.70
75457;SHT31;64036;48.266;14.192;2023-05-15T04:20:32;11.40;82.70
75457;SHT31;64036;48.266;14.192;2023-05-15T04:23:04;11.42;82.70
75457;SHT31;64036;48.266;14.192;2023-05-15T04:25:33;11.43;82.70
75457;SHT31;64036;48.266;14.192;2023-05-15T04:28:02;11.45;82.67
75457;SHT31;64036;48.266;14.192;2023-05-15T04:30:28;11.47;82.62
75457;SHT31;64036;48.266;14.192;2023-05-15T04:33:00;11.48;82.60
75457;SHT31;64036;48.266;14.192;2023-05-15T04:35:28;11.49;82.60
75457;SHT31;64036;48.266;14.192;2023-05-15T04:37:54;11.50;82.59
75457;SHT31;64036;48.266;14.192;2023-05-15T04:40:20;11.51;82.59
75457;SHT31;64036;48.266;14.192;2023-05-15T04:42:48;11.52;82.59
75457;SHT31;64036;48.266;14.192;2023-05-15T04:45:16;11.53;82.54
75457;SHT31;64036;48.266;14.192;2023-05-15T04:47:42;11.53;82.50
75457;SHT31;64036;48.266;14.192;2023-05-15T04:50:07;11.55;82.50
75457;SHT31;64036;48.266;14.192;2023-05-15T04:52:33;11.56;82.46
75457;SHT31;64036;48.266;14.192;2023-05-15T04:54:59;11.58;82.40
75457;SHT31;64036;48.266;14.192;2023-05-15T04:57:25;11.60;82.33
75457;SHT31;64036;48.266;14.192;2023-05-15T04:59:51;11.62;82.30
75457;SHT31;64036;48.266;14.192;2023-05-15T05:02:20;11.65;82.30
75457;SHT31;64036;48.266;14.192;2023-05-15T05:04:46;11.70;82.30
75457;SHT31;64036;48.266;14.192;2023-05-15T05:07:12;11.72;82.22
75457;SHT31;64036;48.266;14.192;2023-05-15T05:09:40;11.74;82.22
75457;SHT31;64036;48.266;14.192;2023-05-15T05:12:06;11.78;82.22
75457;SHT31;64036;48.266;14.192;2023-05-15T05:14:35;11.82;82.19
75457;SHT31;64036;48.266;14.192;2023-05-15T05:17:01;11.85;82.11
75457;SHT31;64036;48.266;14.192;2023-05-15T05:19:27;11.88;82.09
75457;SHT31;64036;48.266;14.192;2023-05-15T05:21:53;11.90;82.03
75457;SHT31;64036;48.266;14.192;2023-05-15T05:24:19;11.94;82.03
75457;SHT31;64036;48.266;14.192;2023-05-15T05:26:45;11.99;82.03
75457;SHT31;64036;48.266;14.192;2023-05-15T05:29:12;12.03;82.02
75457;SHT31;64036;48.266;14.192;2023-05-15T05:31:37;12.08;81.97
75457;SHT31;64036;48.266;14.192;2023-05-15T05:34:03;12.12;81.88
75457;SHT31;64036;48.266;14.192;2023-05-15T05:36:29;12.17;81.79
75457;SHT31;64036;48.266;14.192;2023-05-15T05:38:54;12.22;81.80
75457;SHT31;64036;48.266;14.192;2023-05-15T05:41:20;12.27;81.75
75457;SHT31;64036;48.266;14.192;2023-05-15T05:43:46;12.30;81.59
75457;SHT31;64036;48.266;14.192;2023-05-15T05:46:11;12.33;81.59
75457;SHT31;64036;48.266;14.192;2023-05-15T05:48:40;12.38;81.52
75457;SHT31;64036;48.266;14.192;2023-05-15T05:51:05;12.41;81.35
75457;SHT31;64036;48.266;14.192;2023-05-15T05:53:31;12.46;81.30
75457;SHT31;64036;48.266;14.192;2023-05-15T05:55:59;12.50;81.24
75457;SHT31;64036;48.266;14.192;2023-05-15T05:58:25;12.57;81.16
75457;SHT31;64036;48.266;14.192;2023-05-15T06:00:52;12.62;81.04
75457;SHT31;64036;48.266;14.192;2023-05-15T06:03:20;12.68;81.04
75457;SHT31;64036;48.266;14.192;2023-05-15T06:05:49;12.74;80.87
75457;SHT31;64036;48.266;14.192;2023-05-15T06:08:15;12.77;80.76
75457;SHT31;64036;48.266;14.192;2023-05-15T06:10:41;12.79;80.54
75457;SHT31;64036;48.266;14.192;2023-05-15T06:13:07;12.80;80.43
75457;SHT31;64036;48.266;14.192;2023-05-15T06:15:33;12.82;80.31
75457;SHT31;64036;48.266;14.192;2023-05-15T06:18:04;12.83;80.12
75457;SHT31;64036;48.266;14.192;2023-05-15T06:20:30;12.82;79.93
75457;SHT31;64036;48.266;14.192;2023-05-15T06:22:56;12.83;79.96
75457;SHT31;64036;48.266;14.192;2023-05-15T06:25:22;12.86;79.86
75457;SHT31;64036;48.266;14.192;2023-05-15T06:27:47;12.88;79.81
75457;SHT31;64036;48.266;14.192;2023-05-15T06:30:13;12.95;79.89
75457;SHT31;64036;48.266;14.192;2023-05-15T06:32:39;13.01;79.69
75457;SHT31;64036;48.266;14.192;2023-05-15T06:35:06;13.07;79.49
75457;SHT31;64036;48.266;14.192;2023-05-15T06:37:34;13.17;79.50
75457;SHT31;64036;48.266;14.192;2023-05-15T06:40:00;13.28;79.32
75457;SHT31;64036;48.266;14.192;2023-05-15T06:42:26;13.31;78.91
75457;SHT31;64036;48.266;14.192;2023-05-15T06:44:51;13.37;78.99
75457;SHT31;64036;48.266;14.192;2023-05-15T06:47:17;13.47;78.84
75457;SHT31;64036;48.266;14.192;2023-05-15T06:49:43;13.55;78.71
75457;SHT31;64036;48.266;14.192;2023-05-15T06:52:13;13.66;78.64
75457;SHT31;64036;48.266;14.192;2023-05-15T06:54:39;13.76;78.26
75457;SHT31;64036;48.266;14.192;2023-05-15T06:57:06;13.84;78.13
75457;SHT31;64036;48.266;14.192;2023-05-15T06:59:35;13.90;77.93
75457;SHT31;64036;48.266;14.192;2023-05-15T07:02:01;13.97;77.82
75457;SHT31;64036;48.266;14.192;2023-05-15T07:04:27;14.08;77.93
75457;SHT31;64036;48.266;14.192;2023-05-15T07:06:55;14.16;77.74
75457;SHT31;64036;48.266;14.192;2023-05-15T07:09:21;14.26;77.49
75457;SHT31;64036;48.266;14.192;2023-05-15T07:11:47;14.33;77.29
75457;SHT31;64036;48.266;14.192;2023-05-15T07:14:13;14.43;77.13
75457;SHT31;64036;48.266;14.192;2023-05-15T07:16:39;14.60;76.74
75457;SHT31;64036;48.266;14.192;2023-05-15T07:19:06;14.77;75.95
75457;SHT31;64036;48.266;14.192;2023-05-15T07:21:35;15.01;75.32
75457;SHT31;64036;48.266;14.192;2023-05-15T07:24:03;15.31;74.63
75457;SHT31;64036;48.266;14.192;2023-05-15T07:26:29;15.63;74.88
75457;SHT31;64036;48.266;14.192;2023-05-15T07:28:57;15.89;74.13
75457;SHT31;64036;48.266;14.192;2023-05-15T07:31:22;16.29;73.45
75457;SHT31;64036;48.266;14.192;2023-05-15T07:33:49;16.57;73.37
75457;SHT31;64036;48.266;14.192;2023-05-15T07:36:15;16.81;72.69
75457;SHT31;64036;48.266;14.192;2023-05-15T07:38:40;16.91;71.85
75457;SHT31;64036;48.266;14.192;2023-05-15T07:41:06;16.84;71.43
75457;SHT31;64036;48.266;14.192;2023-05-15T07:43:33;16.77;71.70
75457;SHT31;64036;48.266;14.192;2023-05-15T07:45:58;16.70;71.37
75457;SHT31;64036;48.266;14.192;2023-05-15T07:48:24;16.57;70.82
75457;SHT31;64036;48.266;14.192;2023-05-15T07:50:50;16.43;70.37
75457;SHT31;64036;48.266;14.192;2023-05-15T07:53:18;16.26;70.85
75457;SHT31;64036;48.266;14.192;2023-05-15T07:55:44;16.22;71.11
75457;SHT31;64036;48.266;14.192;2023-05-15T07:58:09;16.25;71.28
75457;SHT31;64036;48.266;14.192;2023-05-15T08:00:36;16.30;71.31
75457;SHT31;64036;48.266;14.192;2023-05-15T08:03:02;16.37;70.31
75457;SHT31;64036;48.266;14.192;2023-05-15T08:05:28;16.75;70.17
75457;SHT31;64036;48.266;14.192;2023-05-15T08:07:54;17.54;69.11
75457;SHT31;64036;48.266;14.192;2023-05-15T08:10:20;18.03;66.54
75457;SHT31;64036;48.266;14.192;2023-05-15T08:12:46;18.48;64.94
75457;SHT31;64036;48.266;14.192;2023-05-15T08:15:14;18.38;64.32
75457;SHT31;64036;48.266;14.192;2023-05-15T08:17:41;18.03;64.71
75457;SHT31;64036;48.266;14.192;2023-05-15T08:20:07;17.77;65.60
75457;SHT31;64036;48.266;14.192;2023-05-15T08:22:34;17.49;65.66
75457;SHT31;64036;48.266;14.192;2023-05-15T08:24:59;17.23;66.74
75457;SHT31;64036;48.266;14.192;2023-05-15T08:27:27;16.98;67.10
75457;SHT31;64036;48.266;14.192;2023-05-15T08:29:53;16.67;67.61
75457;SHT31;64036;48.266;14.192;2023-05-15T08:32:19;16.36;68.12
75457;SHT31;64036;48.266;14.192;2023-05-15T08:34:45;16.04;68.63
75457;SHT31;64036;48.266;14.192;2023-05-15T08:37:11;15.75;69.38
75457;SHT31;64036;48.266;14.192;2023-05-15T08:39:36;15.52;69.18
75457;SHT31;64036;48.266;14.192;2023-05-15T08:44:49;15.11;70.03
75457;SHT31;64036;48.266;14.192;2023-05-15T08:47:19;14.94;70.35
75457;SHT31;64036;48.266;14.192;2023-05-15T08:49:57;14.77;71.02
75457;SHT31;64036;48.266;14.192;2023-05-15T08:52:29;14.62;71.08
75457;SHT31;64036;48.266;14.192;2023-05-15T08:54:57;14.52;71.48
75457;SHT31;64036;48.266;14.192;2023-05-15T08:57:25;14.49;72.08
75457;SHT31;64036;48.266;14.192;2023-05-15T08:59:52;14.54;72.01
75457;SHT31;64036;48.266;14.192;2023-05-15T09:02:19;14.53;71.66
75457;SHT31;64036;48.266;14.192;2023-05-15T09:04:45;14.56;71.81
75457;SHT31;64036;48.266;14.192;2023-05-15T09:07:11;14.65;72.20
75457;SHT31;64036;48.266;14.192;2023-05-15T09:09:40;14.85;72.31
75457;SHT31;64036;48.266;14.192;2023-05-15T09:12:10;15.36;72.57
75457;SHT31;64036;48.266;14.192;2023-05-15T09:14:40;16.63;72.40
75457;SHT31;64036;48.266;14.192;2023-05-15T09:17:10;18.10;69.88
75457;SHT31;64036;48.266;14.192;2023-05-15T09:19:40;18.54;67.40
75457;SHT31;64036;48.266;14.192;2023-05-15T09:24:42;18.18;66.03
75457;SHT31;64036;48.266;14.192;2023-05-15T09:31:45;17.28;66.40
75457;SHT31;64036;48.266;14.192;2023-05-15T09:34:12;17.03;67.11
75457;SHT31;64036;48.266;14.192;2023-05-15T09:36:42;16.79;66.99
75457;SHT31;64036;48.266;14.192;2023-05-15T09:39:11;16.56;67.27
75457;SHT31;64036;48.266;14.192;2023-05-15T09:41:40;16.39;67.56
75457;SHT31;64036;48.266;14.192;2023-05-15T09:44:16;16.19;68.10
75457;SHT31;64036;48.266;14.192;2023-05-15T09:46:51;16.04;68.33
75457;SHT31;64036;48.266;14.192;2023-05-15T09:49:17;16.02;68.47
75457;SHT31;64036;48.266;14.192;2023-05-15T09:51:44;16.29;69.15
75457;SHT31;64036;48.266;14.192;2023-05-15T09:54:16;16.90;69.01
75457;SHT31;64036;48.266;14.192;2023-05-15T09:56:44;17.78;68.54
75457;SHT31;64036;48.266;14.192;2023-05-15T09:59:12;18.40;67.99
75457;SHT31;64036;48.266;14.192;2023-05-15T10:01:43;18.66;67.34
75457;SHT31;64036;48.266;14.192;2023-05-15T10:04:11;18.74;66.62
75457;SHT31;64036;48.266;14.192;2023-05-15T10:06:42;18.67;65.93
75457;SHT31;64036;48.266;14.192;2023-05-15T10:09:13;18.39;65.43
75457;SHT31;64036;48.266;14.192;2023-05-15T10:11:43;18.14;65.89
75457;SHT31;64036;48.266;14.192;2023-05-15T10:14:18;17.83;65.19
75457;SHT31;64036;48.266;14.192;2023-05-15T10:16:46;17.54;65.43
75457;SHT31;64036;48.266;14.192;2023-05-15T10:19:12;17.36;65.96
75457;SHT31;64036;48.266;14.192;2023-05-15T10:21:39;17.27;66.31
75457;SHT31;64036;48.266;14.192;2023-05-15T10:24:06;17.26;66.39
75457;SHT31;64036;48.266;14.192;2023-05-15T10:26:39;17.24;66.28
75457;SHT31;64036;48.266;14.192;2023-05-15T10:29:10;17.18;66.26
75457;SHT31;64036;48.266;14.192;2023-05-15T10:31:39;17.13;65.92
75457;SHT31;64036;48.266;14.192;2023-05-15T10:34:06;16.97;65.64
75457;SHT31;64036;48.266;14.192;2023-05-15T10:36:34;16.84;65.79
75457;SHT31;64036;48.266;14.192;2023-05-15T10:39:02;16.73;65.95
75457;SHT31;64036;48.266;14.192;2023-05-15T10:41:31;16.62;66.44
75457;SHT31;64036;48.266;14.192;2023-05-15T10:44:01;16.53;66.75
75457;SHT31;64036;48.266;14.192;2023-05-15T10:46:28;16.47;67.11
75457;SHT31;64036;48.266;14.192;2023-05-15T10:48:56;16.43;67.30
75457;SHT31;64036;48.266;14.192;2023-05-15T10:51:25;16.47;67.53
75457;SHT31;64036;48.266;14.192;2023-05-15T10:53:54;16.51;67.16
75457;SHT31;64036;48.266;14.192;2023-05-15T10:56:24;16.55;67.26
75457;SHT31;64036;48.266;14.192;2023-05-15T10:58:54;16.67;67.19
75457;SHT31;64036;48.266;14.192;2023-05-15T11:01:24;16.91;67.14
75457;SHT31;64036;48.266;14.192;2023-05-15T11:06:36;17.60;65.85
75457;SHT31;64036;48.266;14.192;2023-05-15T11:14:15;18.40;64.10
75457;SHT31;64036;48.266;14.192;2023-05-15T11:21:57;19.16;62.57
75457;SHT31;64036;48.266;14.192;2023-05-15T11:25:10;19.47;62.22
75457;SHT31;64036;48.266;14.192;2023-05-15T11:27:40;20.02;62.06
75457;SHT31;64036;48.266;14.192;2023-05-15T11:30:20;20.58;61.93
75457;SHT31;64036;48.266;14.192;2023-05-15T11:32:56;20.64;60.20
75457;SHT31;64036;48.266;14.192;2023-05-15T11:35:29;20.15;58.45
75457;SHT31;64036;48.266;14.192;2023-05-15T11:38:00;19.66;59.13
75457;SHT31;64036;48.266;14.192;2023-05-15T11:40:35;19.26;58.48
75457;SHT31;64036;48.266;14.192;2023-05-15T11:43:16;19.06;59.50
75457;SHT31;64036;48.266;14.192;2023-05-15T11:48:32;19.01;59.92
75457;SHT31;64036;48.266;14.192;2023-05-15T11:51:03;19.08;59.74
75457;SHT31;64036;48.266;14.192;2023-05-15T11:53:31;19.07;59.59
75457;SHT31;64036;48.266;14.192;2023-05-15T11:55:57;19.08;60.13
75457;SHT31;64036;48.266;14.192;2023-05-15T11:58:24;19.15;59.69
75457;SHT31;64036;48.266;14.192;2023-05-15T12:00:51;19.08;59.37
75457;SHT31;64036;48.266;14.192;2023-05-15T12:03:25;19.17;60.17
75457;SHT31;64036;48.266;14.192;2023-05-15T12:06:00;19.28;59.31
75457;SHT31;64036;48.266;14.192;2023-05-15T12:08:34;19.35;59.42
75457;SHT31;64036;48.266;14.192;2023-05-15T12:11:01;19.45;58.93
75457;SHT31;64036;48.266;14.192;2023-05-15T12:13:30;19.47;58.54
75457;SHT31;64036;48.266;14.192;2023-05-15T12:15:57;19.57;58.55
75457;SHT31;64036;48.266;14.192;2023-05-15T12:18:26;19.81;58.71
75457;SHT31;64036;48.266;14.192;2023-05-15T12:20:52;20.18;58.70
75457;SHT31;64036;48.266;14.192;2023-05-15T12:23:19;20.46;57.74
75457;SHT31;64036;48.266;14.192;2023-05-15T12:25:47;20.55;57.28
75457;SHT31;64036;48.266;14.192;2023-05-15T12:28:19;20.85;57.58
75457;SHT31;64036;48.266;14.192;2023-05-15T12:30:45;21.24;57.97
75457;SHT31;64036;48.266;14.192;2023-05-15T12:33:11;21.54;57.80
75457;SHT31;64036;48.266;14.192;2023-05-15T12:35:41;21.66;56.97
75457;SHT31;64036;48.266;14.192;2023-05-15T12:38:15;21.63;54.51
75457;SHT31;64036;48.266;14.192;2023-05-15T12:40:41;21.62;54.52
75457;SHT31;64036;48.266;14.192;2023-05-15T12:43:09;21.74;54.03
75457;SHT31;64036;48.266;14.192;2023-05-15T12:45:36;21.77;52.83
75457;SHT31;64036;48.266;14.192;2023-05-15T12:48:03;21.63;53.13
75457;SHT31;64036;48.266;14.192;2023-05-15T12:50:33;21.44;53.13
75457;SHT31;64036;48.266;14.192;2023-05-15T12:53:01;21.43;54.12
75457;SHT31;64036;48.266;14.192;2023-05-15T12:55:30;21.58;54.74
75457;SHT31;64036;48.266;14.192;2023-05-15T12:57:59;21.82;53.97
75457;SHT31;64036;48.266;14.192;2023-05-15T13:00:28;21.83;52.70
75457;SHT31;64036;48.266;14.192;2023-05-15T13:02:56;21.78;53.76
75457;SHT31;64036;48.266;14.192;2023-05-15T13:05:23;21.83;53.72
75457;SHT31;64036;48.266;14.192;2023-05-15T13:07:50;21.72;53.82
75457;SHT31;64036;48.266;14.192;2023-05-15T13:10:18;21.45;54.82
75457;SHT31;64036;48.266;14.192;2023-05-15T13:12:47;21.03;55.63
75457;SHT31;64036;48.266;14.192;2023-05-15T13:15:56;20.89;56.01
75457;SHT31;64036;48.266;14.192;2023-05-15T13:18:05;20.89;56.01
75457;SHT31;64036;48.266;14.192;2023-05-15T13:20:46;20.92;55.80
75457;SHT31;64036;48.266;14.192;2023-05-15T13:23:16;20.91;56.01
75457;SHT31;64036;48.266;14.192;2023-05-15T13:25:44;20.91;55.86
75457;SHT31;64036;48.266;14.192;2023-05-15T13:28:11;20.85;56.35
75457;SHT31;64036;48.266;14.192;2023-05-15T13:30:57;20.52;57.32
75457;SHT31;64036;48.266;14.192;2023-05-15T13:33:23;20.11;58.01
75457;SHT31;64036;48.266;14.192;2023-05-15T13:35:49;19.84;58.36
75457;SHT31;64036;48.266;14.192;2023-05-15T13:38:15;19.79;59.39
75457;SHT31;64036;48.266;14.192;2023-05-15T13:40:41;19.82;60.03
75457;SHT31;64036;48.266;14.192;2023-05-15T13:43:07;19.93;59.60
75457;SHT31;64036;48.266;14.192;2023-05-15T13:45:33;20.08;59.58
75457;SHT31;64036;48.266;14.192;2023-05-15T13:47:59;20.10;59.38
75457;SHT31;64036;48.266;14.192;2023-05-15T13:50:25;20.12;58.50
75457;SHT31;64036;48.266;14.192;2023-05-15T13:52:51;20.25;57.59
75457;SHT31;64036;48.266;14.192;2023-05-15T13:55:18;20.24;57.31
75457;SHT31;64036;48.266;14.192;2023-05-15T13:57:45;20.26;56.97
75457;SHT31;64036;48.266;14.192;2023-05-15T14:00:11;20.26;56.95
75457;SHT31;64036;48.266;14.192;2023-05-15T14:02:38;20.23;57.09
75457;SHT31;64036;48.266;14.192;2023-05-15T14:05:06;20.19;57.34
75457;SHT31;64036;48.266;14.192;2023-05-15T14:07:32;20.15;56.68
75457;SHT31;64036;48.266;14.192;2023-05-15T14:09:58;20.09;56.95
75457;SHT31;64036;48.266;14.192;2023-05-15T14:12:24;20.18;56.92
75457;SHT31;64036;48.266;14.192;2023-05-15T14:14:50;20.25;57.60
75457;SHT31;64036;48.266;14.192;2023-05-15T14:17:15;20.31;57.18
75457;SHT31;64036;48.266;14.192;2023-05-15T14:19:42;20.34;56.86
75457;SHT31;64036;48.266;14.192;2023-05-15T14:22:09;20.50;56.98
75457;SHT31;64036;48.266;14.192;2023-05-15T14:24:35;20.75;55.89
75457;SHT31;64036;48.266;14.192;2023-05-15T14:27:01;20.88;55.46
75457;SHT31;64036;48.266;14.192;2023-05-15T14:29:27;20.77;56.44
75457;SHT31;64036;48.266;14.192;2023-05-15T14:31:53;20.65;57.02
75457;SHT31;64036;48.266;14.192;2023-05-15T14:34:19;20.58;56.42
75457;SHT31;64036;48.266;14.192;2023-05-15T14:36:46;20.57;55.89
75457;SHT31;64036;48.266;14.192;2023-05-15T14:39:13;20.61;55.98
75457;SHT31;64036;48.266;14.192;2023-05-15T14:41:40;20.59;56.17
75457;SHT31;64036;48.266;14.192;2023-05-15T14:44:06;20.53;56.83
75457;SHT31;64036;48.266;14.192;2023-05-15T14:46:32;20.56;55.96
75457;SHT31;64036;48.266;14.192;2023-05-15T14:48:58;20.60;56.14
75457;SHT31;64036;48.266;14.192;2023-05-15T14:51:23;20.61;56.62
75457;SHT31;64036;48.266;14.192;2023-05-15T14:53:49;20.60;56.54
75457;SHT31;64036;48.266;14.192;2023-05-15T14:56:15;20.60;56.19
75457;SHT31;64036;48.266;14.192;2023-05-15T14:58:40;20.54;55.99
75457;SHT31;64036;48.266;14.192;2023-05-15T15:01:06;20.35;55.97
75457;SHT31;64036;48.266;14.192;2023-05-15T15:03:32;20.23;55.87
75457;SHT31;64036;48.266;14.192;2023-05-15T15:05:57;20.03;56.17
75457;SHT31;64036;48.266;14.192;2023-05-15T15:08:24;19.69;56.91
75457;SHT31;64036;48.266;14.192;2023-05-15T15:10:49;19.60;57.34
75457;SHT31;64036;48.266;14.192;2023-05-15T15:13:15;19.65;57.59
75457;SHT31;64036;48.266;14.192;2023-05-15T15:15:41;19.75;57.28
75457;SHT31;64036;48.266;14.192;2023-05-15T15:18:07;19.87;56.70
75457;SHT31;64036;48.266;14.192;2023-05-15T15:20:33;19.94;56.36
75457;SHT31;64036;48.266;14.192;2023-05-15T15:22:59;20.02;55.92
75457;SHT31;64036;48.266;14.192;2023-05-15T15:25:25;19.99;55.66
75457;SHT31;64036;48.266;14.192;2023-05-15T15:27:51;19.87;55.49
75457;SHT31;64036;48.266;14.192;2023-05-15T15:30:17;19.81;55.90
75457;SHT31;64036;48.266;14.192;2023-05-15T15:32:43;19.79;56.16
75457;SHT31;64036;48.266;14.192;2023-05-15T15:35:10;19.78;56.55
75457;SHT31;64036;48.266;14.192;2023-05-15T15:37:37;19.92;56.35
75457;SHT31;64036;48.266;14.192;2023-05-15T15:40:04;20.04;56.52
75457;SHT31;64036;48.266;14.192;2023-05-15T15:42:31;20.20;55.81
75457;SHT31;64036;48.266;14.192;2023-05-15T15:44:58;20.28;55.23
75457;SHT31;64036;48.266;14.192;2023-05-15T15:47:25;20.31;55.59
75457;SHT31;64036;48.266;14.192;2023-05-15T15:49:51;20.31;55.71
75457;SHT31;64036;48.266;14.192;2023-05-15T15:52:17;20.33;55.29
75457;SHT31;64036;48.266;14.192;2023-05-15T15:54:44;20.31;55.16
75457;SHT31;64036;48.266;14.192;2023-05-15T15:57:16;20.26;55.58